createdAt,value
2022-12-13T00:01:48.190Z,99329.77
2022-12-13T00:04:17.843Z,99330.75
2022-12-13T00:06:46.875Z,99331.23
2022-12-13T00:09:17.137Z,99331.86
2022-12-13T00:11:45.920Z,99335.02
2022-12-13T00:14:15.009Z,99338.17
2022-12-13T00:16:46.699Z,99336.96
2022-12-13T00:19:16.912Z,99335.93
2022-12-13T00:21:45.415Z,99335.55
2022-12-13T00:24:14.535Z,99346.27
2022-12-13T00:26:42.922Z,99346.25
2022-12-13T00:29:12.049Z,99346.73
2022-12-13T00:34:29.259Z,99353.73
2022-12-13T00:36:58.774Z,99351.86
2022-12-13T00:39:27.498Z,99355.52
2022-12-13T00:41:55.722Z,99363.40
2022-12-13T00:44:24.315Z,99368.77
2022-12-13T00:46:52.590Z,99367.75
2022-12-13T00:49:21.061Z,99367.91
2022-12-13T00:51:49.546Z,99364.23
2022-12-13T00:54:17.943Z,99365.95
2022-12-13T00:56:46.209Z,99365.64
2022-12-13T00:59:15.514Z,99368.37
2022-12-13T01:01:43.834Z,99369.11
2022-12-13T01:04:12.266Z,99369.16
2022-12-13T01:06:42.461Z,99372.53
2022-12-13T01:09:16.995Z,99375.09
2022-12-13T01:11:46.226Z,99378.96
2022-12-13T01:14:14.780Z,99382.83
2022-12-13T01:16:43.051Z,99383.99
2022-12-13T01:19:11.343Z,99384.84
2022-12-13T01:21:39.636Z,99383.98
2022-12-13T01:24:08.905Z,99381.64
2022-12-13T01:26:37.351Z,99384.67
2022-12-13T01:29:05.509Z,99382.35
2022-12-13T01:31:33.714Z,99386.58
2022-12-13T01:34:09.733Z,99387.06
2022-12-13T01:36:38.932Z,99385.39
2022-12-13T01:39:14.783Z,99389.08
2022-12-13T01:41:45.977Z,99392.95
2022-12-13T01:44:50.267Z,99393.48
2022-12-13T01:47:23.344Z,99396.04
2022-12-13T01:49:53.948Z,99393.73
2022-12-13T01:52:22.771Z,99395.42
2022-12-13T01:54:55.558Z,99403.86
2022-12-13T01:57:34.082Z,99407.77
2022-12-13T02:00:03.145Z,99404.27
2022-12-13T02:02:35.995Z,99402.80
2022-12-13T02:05:09.395Z,99405.15
2022-12-13T02:07:40.522Z,99403.66
2022-12-13T02:10:10.453Z,99404.53
2022-12-13T02:12:40.653Z,99404.21
2022-12-13T02:15:14.342Z,99403.74
2022-12-13T02:18:16.522Z,99406.45
2022-12-13T02:21:16.107Z,99403.54
2022-12-13T02:24:30.798Z,99404.88
2022-12-13T02:27:42.559Z,99398.67
2022-12-13T02:30:23.880Z,99399.84
2022-12-13T02:33:21.771Z,99399.84
2022-12-13T02:35:59.552Z,99397.78
2022-12-13T02:38:35.065Z,99398.95
2022-12-13T02:41:13.453Z,99393.58
2022-12-13T02:43:48.550Z,99402.66
2022-12-13T02:46:20.403Z,99408.19
2022-12-13T02:48:51.701Z,99409.55
2022-12-13T02:51:22.087Z,99409.58
2022-12-13T02:53:50.189Z,99412.96
2022-12-13T02:56:18.440Z,99413.33
2022-12-13T02:58:50.221Z,99415.69
2022-12-13T03:01:40.058Z,99418.23
2022-12-13T03:04:26.069Z,99418.09
2022-12-13T03:07:01.683Z,99422.02
2022-12-13T03:09:43.109Z,99416.98
2022-12-13T03:12:38.739Z,99419.17
2022-12-13T03:15:19.232Z,99421.04
2022-12-13T03:17:52.123Z,99424.73
2022-12-13T03:20:25.472Z,99423.27
2022-12-13T03:22:54.613Z,99424.15
2022-12-13T03:25:31.230Z,99424.65
2022-12-13T03:28:02.509Z,99425.67
2022-12-13T03:30:32.818Z,99420.27
2022-12-13T03:33:01.629Z,99419.79
2022-12-13T03:35:34.166Z,99421.98
2022-12-13T03:38:23.041Z,99415.95
2022-12-13T03:40:55.673Z,99420.04
2022-12-13T03:43:24.620Z,99419.07
2022-12-13T03:45:53.956Z,99416.39
2022-12-13T03:48:23.771Z,99418.08
2022-12-13T03:50:53.896Z,99419.25
2022-12-13T03:53:33.338Z,99420.77
2022-12-13T03:56:04.561Z,99423.77
2022-12-13T03:58:35.250Z,99419.37
2022-12-13T04:01:07.554Z,99418.18
2022-12-13T04:03:36.470Z,99422.02
2022-12-13T04:06:05.890Z,99422.85
2022-12-13T04:08:33.801Z,99426.52
2022-12-13T04:11:24.534Z,99427.19
2022-12-13T04:13:54.623Z,99429.66
2022-12-13T04:16:24.053Z,99433.01
2022-12-13T04:18:52.226Z,99429.30
2022-12-13T04:21:20.356Z,99435.38
2022-12-13T04:23:48.788Z,99436.58
2022-12-13T04:26:16.905Z,99437.73
2022-12-13T04:28:49.359Z,99439.61
2022-12-13T04:31:20.967Z,99442.98
2022-12-13T04:33:49.090Z,99444.84
2022-12-13T04:36:31.910Z,99441.46
2022-12-13T04:39:01.863Z,99443.30
2022-12-13T04:41:35.091Z,99443.80
2022-12-13T04:44:05.186Z,99447.66
2022-12-13T04:46:33.533Z,99450.52
2022-12-13T04:49:01.772Z,99457.11
2022-12-13T04:51:29.791Z,99457.32
2022-12-13T04:54:04.207Z,99462.55
2022-12-13T04:56:46.569Z,99463.89
2022-12-13T04:59:14.805Z,99465.05
2022-12-13T05:01:43.174Z,99467.22
2022-12-13T05:04:11.777Z,99467.89
2022-12-13T05:06:40.155Z,99467.37
2022-12-13T05:09:11.147Z,99463.64
2022-12-13T05:11:45.509Z,99468.63
2022-12-13T05:14:23.303Z,99470.08
2022-12-13T05:16:51.920Z,99471.02
2022-12-13T05:19:20.357Z,99475.54
2022-12-13T05:21:48.941Z,99471.61
2022-12-13T05:24:17.402Z,99470.44
2022-12-13T05:26:45.498Z,99481.39
2022-12-13T05:29:13.729Z,99486.42
2022-12-13T05:31:41.951Z,99484.54
2022-12-13T05:34:10.181Z,99488.88
2022-12-13T05:36:38.275Z,99491.05
2022-12-13T05:39:06.417Z,99490.55
2022-12-13T05:41:55.672Z,99491.71
2022-12-13T05:44:30.322Z,99494.08
2022-12-13T05:46:58.514Z,99496.43
2022-12-13T05:49:31.913Z,99501.18
2022-12-13T05:52:00.088Z,99505.89
2022-12-13T05:54:28.121Z,99507.35
2022-12-13T05:56:56.245Z,99514.20
2022-12-13T05:59:24.499Z,99512.69
2022-12-13T06:01:52.778Z,99517.40
2022-12-13T06:04:22.347Z,99515.73
2022-12-13T06:06:51.853Z,99520.89
2022-12-13T06:09:20.206Z,99521.08
2022-12-13T06:11:48.939Z,99520.74
2022-12-13T06:14:22.894Z,99525.93
2022-12-13T06:16:52.557Z,99529.45
2022-12-13T06:19:21.560Z,99530.59
2022-12-13T06:21:50.416Z,99538.30
2022-12-13T06:24:20.602Z,99539.14
2022-12-13T06:26:49.638Z,99540.27
2022-12-13T06:29:23.756Z,99549.98
2022-12-13T06:32:01.946Z,99551.80
2022-12-13T06:34:33.110Z,99550.72
2022-12-13T06:37:06.296Z,99556.20
2022-12-13T06:39:34.900Z,99563.38
2022-12-13T06:42:13.968Z,99562.48
2022-12-13T06:44:56.189Z,99568.84
2022-12-13T06:47:31.438Z,99574.50
2022-12-13T06:50:05.546Z,99575.09
2022-12-13T06:52:34.464Z,99576.83
2022-12-13T06:55:02.707Z,99579.94
2022-12-13T06:57:33.318Z,99588.27
2022-12-13T07:00:04.444Z,99587.73
2022-12-13T07:02:32.695Z,99595.45
2022-12-13T07:05:01.048Z,99596.44
2022-12-13T07:07:30.395Z,99600.27
2022-12-13T07:09:58.540Z,99604.11
2022-12-13T07:12:26.809Z,99606.13
2022-12-13T07:14:55.409Z,99610.32
2022-12-13T07:17:33.512Z,99609.10
2022-12-13T07:20:07.931Z,99612.08
2022-12-13T07:22:44.854Z,99617.94
2022-12-13T07:25:27.782Z,99620.79
2022-12-13T07:28:01.717Z,99625.10
2022-12-13T07:30:33.134Z,99624.60
2022-12-13T07:33:02.691Z,99626.96
2022-12-13T07:35:31.998Z,99631.98
2022-12-13T07:38:07.878Z,99637.34
2022-12-13T07:40:36.858Z,99645.04
2022-12-13T07:43:05.979Z,99649.70
2022-12-13T07:45:34.226Z,99648.95
2022-12-13T07:48:07.839Z,99653.45
2022-12-13T07:50:37.051Z,99654.89
2022-12-13T07:53:07.622Z,99659.40
2022-12-13T07:55:36.598Z,99657.15
2022-12-13T07:58:09.483Z,99662.66
2022-12-13T08:00:38.275Z,99665.64
2022-12-13T08:03:06.619Z,99662.12
2022-12-13T08:05:38.988Z,99670.86
2022-12-13T08:08:10.993Z,99669.21
2022-12-13T08:10:39.241Z,99670.96
2022-12-13T08:13:07.493Z,99670.20
2022-12-13T08:15:35.556Z,99675.98
2022-12-13T08:18:04.464Z,99678.05
2022-12-13T08:20:32.757Z,99681.09
2022-12-13T08:23:01.827Z,99681.46
2022-12-13T08:25:31.370Z,99684.51
2022-12-13T08:28:01.398Z,99686.18
2022-12-13T08:30:32.313Z,99689.83
2022-12-13T08:33:05.024Z,99691.20
2022-12-13T08:35:35.017Z,99689.27
2022-12-13T08:38:03.952Z,99692.15
2022-12-13T08:40:32.161Z,99691.78
2022-12-13T08:43:00.339Z,99692.79
2022-12-13T08:45:33.678Z,99694.09
2022-12-13T08:48:02.739Z,99698.09
2022-12-13T08:50:31.132Z,99700.91
2022-12-13T08:52:59.296Z,99703.73
2022-12-13T08:55:31.910Z,99702.52
2022-12-13T08:58:07.971Z,99707.55
2022-12-13T09:00:37.040Z,99710.95
2022-12-13T09:03:06.317Z,99710.98
2022-12-13T09:05:38.633Z,99715.20
2022-12-13T09:08:24.822Z,99718.80
2022-12-13T09:11:01.596Z,99720.58
2022-12-13T09:13:43.775Z,99720.95
2022-12-13T09:16:23.284Z,99726.04
2022-12-13T09:18:55.155Z,99725.75
2022-12-13T09:21:31.477Z,99725.44
2022-12-13T09:24:01.756Z,99726.15
2022-12-13T09:26:37.541Z,99725.98
2022-12-13T09:29:10.733Z,99726.77
2022-12-13T09:31:40.103Z,99724.23
2022-12-13T09:34:08.642Z,99725.56
2022-12-13T09:36:36.767Z,99725.55
2022-12-13T09:39:05.020Z,99730.21
2022-12-13T09:41:40.577Z,99727.02
2022-12-13T09:44:32.257Z,99729.91
2022-12-13T09:47:13.649Z,99739.04
2022-12-13T09:49:52.092Z,99737.17
2022-12-13T09:52:24.346Z,99735.52
2022-12-13T09:54:55.488Z,99735.08
2022-12-13T09:57:32.443Z,99738.18
2022-12-13T10:00:05.054Z,99736.98
2022-12-13T10:02:44.253Z,99737.82
2022-12-13T10:05:22.857Z,99739.27
2022-12-13T10:07:57.236Z,99739.54
2022-12-13T10:10:26.899Z,99741.30
2022-12-13T10:13:03.492Z,99737.85
2022-12-13T10:15:33.695Z,99739.41
2022-12-13T10:18:04.389Z,99739.05
2022-12-13T10:20:34.507Z,99740.52
2022-12-13T10:23:31.288Z,99745.52
2022-12-13T10:25:54.584Z,99748.14
2022-12-13T10:28:33.460Z,99746.41
2022-12-13T10:31:02.786Z,99742.10
2022-12-13T10:33:34.724Z,99746.77
2022-12-13T10:36:09.187Z,99750.41
2022-12-13T10:38:39.343Z,99746.43
2022-12-13T10:41:29.561Z,99749.62
2022-12-13T10:44:19.568Z,99749.45
2022-12-13T10:47:17.068Z,99749.60
2022-12-13T10:49:59.292Z,99744.85
2022-12-13T10:52:32.191Z,99739.89
2022-12-13T10:55:04.131Z,99738.35
2022-12-13T10:57:52.767Z,99734.65
2022-12-13T11:00:34.016Z,99734.41
2022-12-13T11:03:02.925Z,99736.55
2022-12-13T11:05:33.559Z,99739.17
2022-12-13T11:08:15.304Z,99738.27
2022-12-13T11:10:43.768Z,99735.05
2022-12-13T11:13:24.437Z,99736.27
2022-12-13T11:15:56.546Z,99736.90
2022-12-13T11:18:27.132Z,99734.69
2022-12-13T11:20:59.149Z,99735.45
2022-12-13T11:23:31.876Z,99735.80
2022-12-13T11:26:05.789Z,99740.11
2022-12-13T11:28:50.764Z,99732.25
2022-12-13T11:31:27.163Z,99733.98
2022-12-13T11:34:03.946Z,99732.21
2022-12-13T11:36:42.778Z,99736.06
2022-12-13T11:39:20.758Z,99733.08
2022-12-13T11:41:55.424Z,99732.81
2022-12-13T11:44:37.249Z,99738.11
2022-12-13T11:47:07.144Z,99736.86
2022-12-13T11:49:41.159Z,99737.08
2022-12-13T11:52:16.932Z,99736.25
2022-12-13T11:54:52.629Z,99734.77
2022-12-13T11:57:30.464Z,99738.52
2022-12-13T12:00:04.744Z,99744.01
2022-12-13T12:02:48.344Z,99741.94
2022-12-13T12:05:28.127Z,99744.38
2022-12-13T12:11:01.346Z,99750.33
2022-12-13T12:13:36.519Z,99755.61
2022-12-13T12:16:29.006Z,99756.73
2022-12-13T12:19:01.562Z,99763.02
2022-12-13T12:24:56.882Z,99767.70
2022-12-13T12:27:36.253Z,99765.64
2022-12-13T12:30:23.251Z,99770.94
2022-12-13T12:33:06.102Z,99772.39
2022-12-13T12:36:03.145Z,99777.40
2022-12-13T12:38:52.793Z,99776.47
2022-12-13T12:41:32.433Z,99776.19
2022-12-13T12:44:11.160Z,99779.48
2022-12-13T12:47:01.517Z,99776.86
2022-12-13T12:49:58.402Z,99784.30
2022-12-13T12:52:39.681Z,99785.45
2022-12-13T12:55:17.830Z,99786.52
2022-12-13T12:57:57.226Z,99786.55
2022-12-13T13:00:38.570Z,99789.55
2022-12-13T13:03:22.386Z,99791.20
2022-12-13T13:06:01.880Z,99788.15
2022-12-13T13:08:38.334Z,99786.30
2022-12-13T13:11:25.081Z,99796.13
2022-12-13T13:14:25.130Z,99798.58
2022-12-13T13:16:55.219Z,99803.20
2022-12-13T13:19:46.994Z,99806.48
2022-12-13T13:22:31.472Z,99805.77
2022-12-13T13:25:16.891Z,99811.16
2022-12-13T13:27:49.842Z,99810.53
2022-12-13T13:30:20.859Z,99814.11
2022-12-13T13:32:50.836Z,99816.17
2022-12-13T13:35:55.176Z,99812.01
2022-12-13T13:38:53.254Z,99822.27
2022-12-13T13:42:07.621Z,99823.55
2022-12-13T13:44:55.007Z,99823.89
2022-12-13T13:47:41.176Z,99824.14
2022-12-13T13:50:46.704Z,99828.77
2022-12-13T13:53:53.188Z,99823.98
2022-12-13T13:56:50.648Z,99829.96
2022-12-13T14:00:03.473Z,99834.49
2022-12-13T14:03:33.445Z,99838.08
2022-12-13T14:06:41.652Z,99843.20
2022-12-13T14:09:41.560Z,99842.17
2022-12-13T14:12:52.697Z,99840.91
2022-12-13T14:16:04.105Z,99842.80
2022-12-13T14:19:18.696Z,99847.64
2022-12-13T14:22:04.477Z,99849.88
2022-12-13T14:24:47.429Z,99853.41
2022-12-13T14:27:24.680Z,99854.54
2022-12-13T14:29:58.640Z,99858.46
2022-12-13T14:32:28.754Z,99856.34
2022-12-13T14:34:57.800Z,99856.11
2022-12-13T14:37:29.774Z,99851.25
2022-12-13T14:39:58.944Z,99853.94
2022-12-13T14:42:29.752Z,99858.83
2022-12-13T14:45:14.134Z,99862.25
2022-12-13T14:47:43.953Z,99861.02
2022-12-13T14:50:16.319Z,99861.92
2022-12-13T14:52:45.419Z,99864.01
2022-12-13T14:55:24.656Z,99863.63
2022-12-13T14:57:54.828Z,99862.38
2022-12-13T15:00:28.520Z,99864.02
2022-12-13T15:02:59.734Z,99863.64
2022-12-13T15:05:32.383Z,99868.38
2022-12-13T15:08:10.479Z,99864.98
2022-12-13T15:10:41.530Z,99870.25
2022-12-13T15:13:29.690Z,99873.16
2022-12-13T15:16:01.299Z,99874.21
2022-12-13T15:18:30.808Z,99877.64
2022-12-13T15:21:22.263Z,99874.52
2022-12-13T15:23:59.890Z,99876.23
2022-12-13T15:26:33.081Z,99876.69
2022-12-13T15:29:09.588Z,99873.64
2022-12-13T15:31:39.749Z,99873.67
2022-12-13T15:34:32.815Z,99870.74
2022-12-13T15:37:03.440Z,99873.88
2022-12-13T15:39:35.115Z,99880.39
2022-12-13T15:42:03.802Z,99879.52
2022-12-13T15:44:38.709Z,99883.14
2022-12-13T15:47:28.314Z,99891.75
2022-12-13T15:49:59.444Z,99890.02
2022-12-13T15:52:33.955Z,99890.52
2022-12-13T15:55:19.364Z,99892.34
2022-12-13T15:57:51.741Z,99896.34
2022-12-13T16:00:29.440Z,99897.27
2022-12-13T16:03:08.862Z,99898.81
2022-12-13T16:05:41.931Z,99898.66
2022-12-13T16:08:25.808Z,99902.05
2022-12-13T16:10:54.984Z,99896.75
2022-12-13T16:13:27.241Z,99895.09
2022-12-13T16:16:00.460Z,99897.48
2022-12-13T16:18:46.214Z,99896.83
2022-12-13T16:21:14.594Z,99898.10
2022-12-13T16:23:48.456Z,99898.11
2022-12-13T16:26:25.349Z,99893.73
2022-12-13T16:28:54.641Z,99899.20
2022-12-13T16:31:24.732Z,99903.80
2022-12-13T16:33:52.903Z,99913.14
2022-12-13T16:36:21.058Z,99912.23
2022-12-13T16:38:50.872Z,99911.89
2022-12-13T16:41:19.270Z,99912.09
2022-12-13T16:43:53.825Z,99915.02
2022-12-13T16:47:14.997Z,99917.16
2022-12-13T16:49:19.368Z,99911.14
2022-12-13T16:51:49.015Z,99910.15
2022-12-13T16:54:18.962Z,99915.70
2022-12-13T16:56:47.645Z,99914.77
2022-12-13T16:59:19.015Z,99920.21
2022-12-13T17:01:48.139Z,99920.23
2022-12-13T17:04:21.000Z,99924.54
2022-12-13T17:06:50.556Z,99926.00
2022-12-13T17:09:18.940Z,99925.76
2022-12-13T17:11:47.159Z,99928.03
2022-12-13T17:14:15.688Z,99930.98
2022-12-13T17:16:43.847Z,99935.28
2022-12-13T17:19:14.825Z,99937.89
2022-12-13T17:21:43.190Z,99938.52
2022-12-13T17:24:12.115Z,99943.30
2022-12-13T17:26:40.523Z,99941.54
2022-12-13T17:29:16.081Z,99939.23
2022-12-13T17:31:45.664Z,99940.88
2022-12-13T17:34:13.858Z,99941.16
2022-12-13T17:36:42.871Z,99940.55
2022-12-13T17:39:11.823Z,99941.77
2022-12-13T17:41:40.000Z,99948.91
2022-12-13T17:44:08.483Z,99949.21
2022-12-13T17:46:36.971Z,99952.50
2022-12-13T17:49:05.138Z,99948.80
2022-12-13T17:51:33.236Z,99951.54
2022-12-13T17:54:01.267Z,99953.29
2022-12-13T17:56:29.558Z,99950.41
2022-12-13T17:58:57.739Z,99946.86
2022-12-13T18:01:26.274Z,99952.15
2022-12-13T18:03:56.545Z,99949.89
2022-12-13T18:06:25.454Z,99954.14
2022-12-13T18:08:53.521Z,99948.85
2022-12-13T18:11:32.993Z,99951.75
2022-12-13T18:14:03.097Z,99959.70
2022-12-13T18:16:36.936Z,99960.77
2022-12-13T18:19:07.412Z,99961.86
2022-12-13T18:21:37.556Z,99966.96
2022-12-13T18:24:07.237Z,99964.53
2022-12-13T18:26:35.777Z,99965.63
2022-12-13T18:29:04.511Z,99970.77
2022-12-13T18:31:33.109Z,99972.53
2022-12-13T18:34:01.480Z,99974.86
2022-12-13T18:36:29.794Z,99976.27
2022-12-13T18:38:57.920Z,99978.80
2022-12-13T18:41:27.742Z,99978.68
2022-12-13T18:43:59.389Z,99979.70
2022-12-13T18:46:29.401Z,99984.10
2022-12-13T18:48:58.468Z,99985.47
2022-12-13T18:51:28.196Z,99985.80
2022-12-13T18:53:56.810Z,99990.69
2022-12-13T18:56:25.286Z,99992.08
2022-12-13T18:58:53.996Z,99988.73
2022-12-13T19:01:22.918Z,99998.13
2022-12-13T19:03:51.208Z,100002.77
2022-12-13T19:06:21.876Z,100007.10
2022-12-13T19:08:51.508Z,100012.40
2022-12-13T19:11:20.700Z,100010.77
2022-12-13T19:13:49.829Z,100013.55
2022-12-13T19:16:20.490Z,100011.73
2022-12-13T19:18:49.038Z,100011.80
2022-12-13T19:21:20.128Z,100014.27
2022-12-13T19:23:56.459Z,100014.83
2022-12-13T19:26:27.574Z,100020.34
2022-12-13T19:28:57.456Z,100017.27
2022-12-13T19:31:31.708Z,100018.19
2022-12-13T19:34:03.033Z,100015.16
2022-12-13T19:36:31.965Z,100021.28
2022-12-13T19:39:00.484Z,100022.56
2022-12-13T19:41:31.428Z,100027.73
2022-12-13T19:44:01.205Z,100026.20
2022-12-13T19:46:29.701Z,100026.20
2022-12-13T19:48:58.705Z,100019.77
2022-12-13T19:51:26.833Z,100021.96
2022-12-13T19:53:55.183Z,100025.07
2022-12-13T19:56:23.571Z,100023.45
2022-12-13T19:58:52.642Z,100021.44
2022-12-13T20:01:20.778Z,100020.33
2022-12-13T20:03:49.489Z,100020.73
2022-12-13T20:06:21.448Z,100020.36
2022-12-13T20:08:50.209Z,100021.60
2022-12-13T20:11:20.839Z,100025.81
2022-12-13T20:13:52.936Z,100030.48
2022-12-13T20:16:24.529Z,100027.91
2022-12-13T20:18:57.526Z,100033.82
2022-12-13T20:21:27.060Z,100034.77
2022-12-13T20:23:57.166Z,100038.03
2022-12-13T20:26:27.535Z,100039.79
2022-12-13T20:28:56.064Z,100038.82
2022-12-13T20:31:28.827Z,100041.34
2022-12-13T20:33:58.599Z,100043.62
2022-12-13T20:36:29.355Z,100042.73
2022-12-13T20:38:59.259Z,100039.31
2022-12-13T20:41:32.839Z,100042.20
2022-12-13T20:44:02.401Z,100038.11
2022-12-13T20:46:33.225Z,100038.70
2022-12-13T20:49:04.414Z,100044.36
2022-12-13T20:51:34.293Z,100044.15
2022-12-13T20:54:03.272Z,100046.06
2022-12-13T20:56:35.357Z,100048.23
2022-12-13T20:59:04.878Z,100052.18
2022-12-13T21:01:35.798Z,100053.31
2022-12-13T21:04:05.943Z,100053.94
2022-12-13T21:06:36.288Z,100053.18
2022-12-13T21:09:05.524Z,100055.40
2022-12-13T21:11:35.354Z,100056.09
2022-12-13T21:14:10.190Z,100060.80
2022-12-13T21:16:44.337Z,100060.55
2022-12-13T21:19:15.001Z,100064.05
2022-12-13T21:21:43.735Z,100060.05
2022-12-13T21:24:14.190Z,100063.20
2022-12-13T21:26:43.179Z,100064.46
2022-12-13T21:29:13.054Z,100065.49
2022-12-13T21:31:43.436Z,100065.52
2022-12-13T21:34:12.577Z,100068.35
2022-12-13T21:36:42.410Z,100069.67
2022-12-13T21:39:13.344Z,100067.83
2022-12-13T21:41:42.507Z,100074.79
2022-12-13T21:44:12.656Z,100077.42
2022-12-13T21:49:30.312Z,100075.95
2022-12-13T21:51:58.603Z,100073.51
2022-12-13T21:54:26.741Z,100074.68
2022-12-13T21:57:13.540Z,100071.88
2022-12-13T21:59:41.904Z,100070.84
2022-12-13T22:02:17.229Z,100072.42
2022-12-13T22:04:47.758Z,100071.87
2022-12-13T22:07:18.186Z,100069.78
2022-12-13T22:09:47.839Z,100071.55
2022-12-13T22:12:21.640Z,100074.15
2022-12-13T22:14:50.863Z,100072.59
2022-12-13T22:17:23.208Z,100074.38
2022-12-13T22:19:51.916Z,100073.18
2022-12-13T22:22:22.560Z,100074.16
2022-12-13T22:24:53.760Z,100072.80
2022-12-13T22:27:24.642Z,100075.30
2022-12-13T22:29:53.273Z,100072.27
2022-12-13T22:32:21.764Z,100071.73
2022-12-13T22:34:49.985Z,100072.13
2022-12-13T22:37:18.180Z,100070.73
2022-12-13T22:39:46.338Z,100070.99
2022-12-13T22:42:14.815Z,100075.23
2022-12-13T22:44:43.192Z,100071.27
2022-12-13T22:47:11.263Z,100074.68
2022-12-13T22:49:39.713Z,100074.57
2022-12-13T22:52:08.140Z,100076.00
2022-12-13T22:54:36.603Z,100072.64
2022-12-13T22:57:04.887Z,100071.69
2022-12-13T22:59:33.151Z,100066.77
2022-12-13T23:02:03.150Z,100062.65
2022-12-13T23:04:33.971Z,100060.71
2022-12-13T23:07:02.061Z,100060.55
2022-12-13T23:09:30.109Z,100061.16
2022-12-13T23:12:16.756Z,100061.00
2022-12-13T23:14:44.910Z,100060.23
2022-12-13T23:17:13.004Z,100058.69
2022-12-13T23:19:49.677Z,100061.70
2022-12-13T23:22:22.285Z,100060.97
2022-12-13T23:24:51.044Z,100065.40
2022-12-13T23:27:21.416Z,100064.48
2022-12-13T23:29:49.862Z,100065.29
2022-12-13T23:32:18.233Z,100066.84
2022-12-13T23:34:46.533Z,100059.91
2022-12-13T23:37:14.657Z,100062.08
2022-12-13T23:39:42.777Z,100062.72
2022-12-13T23:42:10.953Z,100063.88
2022-12-13T23:44:39.039Z,100064.23
2022-12-13T23:47:07.218Z,100063.79
2022-12-13T23:49:35.399Z,100066.35
2022-12-13T23:52:03.766Z,100072.33
2022-12-13T23:54:31.826Z,100072.39
2022-12-13T23:57:00.509Z,100072.29
2022-12-13T23:59:28.669Z,100072.27
